sensor_id;sensor_type;location;lat;lon;timestamp;P1;durP1;ratioP1;P2;durP2;ratioP2
56269;SDS011;42176;43.240;27.880;2024-02-26T00:01:46;12.27;;;6.20;;
56269;SDS011;42176;43.240;27.880;2024-02-26T00:03:46;9.30;;;5.30;;
56269;SDS011;42176;43.240;27.880;2024-02-26T00:05:47;10.50;;;5.07;;
56269;SDS011;42176;43.240;27.880;2024-02-26T00:07:48;14.83;;;5.50;;
56269;SDS011;42176;43.240;27.880;2024-02-26T00:09:49;6.77;;;4.33;;
56269;SDS011;42176;43.240;27.880;2024-02-26T00:11:49;11.13;;;4.90;;
56269;SDS011;42176;43.240;27.880;2024-02-26T00:13:49;9.77;;;5.33;;
56269;SDS011;42176;43.240;27.880;2024-02-26T00:15:50;12.40;;;5.67;;
56269;SDS011;42176;43.240;27.880;2024-02-26T00:17:51;7.50;;;5.10;;
56269;SDS011;42176;43.240;27.880;2024-02-26T00:19:51;10.50;;;5.83;;
56269;SDS011;42176;43.240;27.880;2024-02-26T00:21:53;8.90;;;5.25;;
56269;SDS011;42176;43.240;27.880;2024-02-26T00:23:56;8.68;;;4.93;;
56269;SDS011;42176;43.240;27.880;2024-02-26T00:25:57;11.60;;;5.50;;
56269;SDS011;42176;43.240;27.880;2024-02-26T00:27:57;10.43;;;5.00;;
56269;SDS011;42176;43.240;27.880;2024-02-26T00:29:58;7.87;;;5.00;;
56269;SDS011;42176;43.240;27.880;2024-02-26T00:31:58;9.07;;;4.80;;
56269;SDS011;42176;43.240;27.880;2024-02-26T00:33:59;9.27;;;5.57;;
56269;SDS011;42176;43.240;27.880;2024-02-26T00:36:00;10.32;;;4.88;;
56269;SDS011;42176;43.240;27.880;2024-02-26T00:38:01;9.63;;;4.97;;
56269;SDS011;42176;43.240;27.880;2024-02-26T00:40:03;8.32;;;5.35;;
56269;SDS011;42176;43.240;27.880;2024-02-26T00:42:04;10.80;;;5.30;;
56269;SDS011;42176;43.240;27.880;2024-02-26T00:44:05;10.00;;;5.53;;
56269;SDS011;42176;43.240;27.880;2024-02-26T00:46:05;7.87;;;4.23;;
56269;SDS011;42176;43.240;27.880;2024-02-26T00:48:06;13.53;;;5.67;;
56269;SDS011;42176;43.240;27.880;2024-02-26T00:50:07;10.43;;;5.63;;
56269;SDS011;42176;43.240;27.880;2024-02-26T00:52:08;12.35;;;6.82;;
56269;SDS011;42176;43.240;27.880;2024-02-26T00:54:09;10.67;;;5.57;;
56269;SDS011;42176;43.240;27.880;2024-02-26T00:56:09;12.57;;;6.13;;
56269;SDS011;42176;43.240;27.880;2024-02-26T00:58:10;10.23;;;5.53;;
56269;SDS011;42176;43.240;27.880;2024-02-26T01:00:11;10.90;;;6.60;;
56269;SDS011;42176;43.240;27.880;2024-02-26T01:02:12;12.45;;;6.20;;
56269;SDS011;42176;43.240;27.880;2024-02-26T01:04:12;9.40;;;5.80;;
56269;SDS011;42176;43.240;27.880;2024-02-26T01:06:13;11.80;;;6.30;;
56269;SDS011;42176;43.240;27.880;2024-02-26T01:08:13;10.13;;;6.00;;
56269;SDS011;42176;43.240;27.880;2024-02-26T01:10:14;12.43;;;5.57;;
56269;SDS011;42176;43.240;27.880;2024-02-26T01:12:14;11.90;;;6.03;;
56269;SDS011;42176;43.240;27.880;2024-02-26T01:14:15;17.35;;;6.78;;
56269;SDS011;42176;43.240;27.880;2024-02-26T01:16:16;12.93;;;6.50;;
56269;SDS011;42176;43.240;27.880;2024-02-26T01:18:16;13.73;;;6.20;;
56269;SDS011;42176;43.240;27.880;2024-02-26T01:20:17;9.83;;;6.07;;
56269;SDS011;42176;43.240;27.880;2024-02-26T01:22:18;8.70;;;5.83;;
56269;SDS011;42176;43.240;27.880;2024-02-26T01:24:18;10.73;;;6.30;;
56269;SDS011;42176;43.240;27.880;2024-02-26T01:26:19;9.83;;;6.17;;
56269;SDS011;42176;43.240;27.880;2024-02-26T01:28:19;13.97;;;5.87;;
56269;SDS011;42176;43.240;27.880;2024-02-26T01:30:20;14.77;;;5.87;;
56269;SDS011;42176;43.240;27.880;2024-02-26T01:32:20;14.07;;;7.33;;
56269;SDS011;42176;43.240;27.880;2024-02-26T01:34:21;13.20;;;7.03;;
56269;SDS011;42176;43.240;27.880;2024-02-26T01:36:22;7.90;;;5.47;;
56269;SDS011;42176;43.240;27.880;2024-02-26T01:38:22;11.23;;;6.43;;
56269;SDS011;42176;43.240;27.880;2024-02-26T01:40:23;12.40;;;6.27;;
56269;SDS011;42176;43.240;27.880;2024-02-26T01:42:27;9.93;;;5.88;;
56269;SDS011;42176;43.240;27.880;2024-02-26T01:44:27;12.80;;;5.87;;
56269;SDS011;42176;43.240;27.880;2024-02-26T01:46:28;8.60;;;5.33;;
56269;SDS011;42176;43.240;27.880;2024-02-26T01:48:30;12.90;;;6.93;;
56269;SDS011;42176;43.240;27.880;2024-02-26T01:50:30;13.57;;;7.07;;
56269;SDS011;42176;43.240;27.880;2024-02-26T01:52:31;26.03;;;11.53;;
56269;SDS011;42176;43.240;27.880;2024-02-26T01:54:36;30.80;;;15.02;;
56269;SDS011;42176;43.240;27.880;2024-02-26T01:56:38;16.63;;;8.98;;
56269;SDS011;42176;43.240;27.880;2024-02-26T01:58:40;18.50;;;9.15;;
56269;SDS011;42176;43.240;27.880;2024-02-26T02:00:41;17.98;;;9.70;;
56269;SDS011;42176;43.240;27.880;2024-02-26T02:02:42;14.63;;;7.43;;
56269;SDS011;42176;43.240;27.880;2024-02-26T02:04:44;14.60;;;7.28;;
56269;SDS011;42176;43.240;27.880;2024-02-26T02:06:45;15.13;;;7.77;;
56269;SDS011;42176;43.240;27.880;2024-02-26T02:08:46;13.83;;;6.87;;
56269;SDS011;42176;43.240;27.880;2024-02-26T02:10:47;17.77;;;9.63;;
56269;SDS011;42176;43.240;27.880;2024-02-26T02:12:49;13.43;;;7.30;;
56269;SDS011;42176;43.240;27.880;2024-02-26T02:14:49;11.73;;;6.40;;
56269;SDS011;42176;43.240;27.880;2024-02-26T02:16:50;14.63;;;5.87;;
56269;SDS011;42176;43.240;27.880;2024-02-26T02:18:50;9.70;;;5.93;;
56269;SDS011;42176;43.240;27.880;2024-02-26T02:20:51;10.67;;;6.70;;
56269;SDS011;42176;43.240;27.880;2024-02-26T02:22:53;8.98;;;5.13;;
56269;SDS011;42176;43.240;27.880;2024-02-26T02:24:54;8.37;;;5.77;;
56269;SDS011;42176;43.240;27.880;2024-02-26T02:26:55;11.30;;;5.47;;
56269;SDS011;42176;43.240;27.880;2024-02-26T02:28:55;9.63;;;5.70;;
56269;SDS011;42176;43.240;27.880;2024-02-26T02:30:57;7.97;;;5.25;;
56269;SDS011;42176;43.240;27.880;2024-02-26T02:32:57;8.43;;;5.43;;
56269;SDS011;42176;43.240;27.880;2024-02-26T02:35:01;8.75;;;4.90;;
56269;SDS011;42176;43.240;27.880;2024-02-26T02:37:02;12.27;;;4.03;;
56269;SDS011;42176;43.240;27.880;2024-02-26T02:39:03;9.73;;;5.07;;
56269;SDS011;42176;43.240;27.880;2024-02-26T02:41:03;8.87;;;4.53;;
56269;SDS011;42176;43.240;27.880;2024-02-26T02:43:04;8.87;;;4.97;;
56269;SDS011;42176;43.240;27.880;2024-02-26T02:45:05;9.57;;;4.23;;
56269;SDS011;42176;43.240;27.880;2024-02-26T02:47:06;8.70;;;4.60;;
56269;SDS011;42176;43.240;27.880;2024-02-26T02:49:10;9.77;;;4.10;;
56269;SDS011;42176;43.240;27.880;2024-02-26T02:51:10;9.52;;;4.40;;
56269;SDS011;42176;43.240;27.880;2024-02-26T02:53:11;12.43;;;5.70;;
56269;SDS011;42176;43.240;27.880;2024-02-26T02:55:12;10.07;;;4.30;;
56269;SDS011;42176;43.240;27.880;2024-02-26T02:57:13;9.33;;;5.23;;
56269;SDS011;42176;43.240;27.880;2024-02-26T02:59:13;10.50;;;5.80;;
56269;SDS011;42176;43.240;27.880;2024-02-26T03:01:14;8.23;;;3.07;;
56269;SDS011;42176;43.240;27.880;2024-02-26T03:03:14;6.83;;;4.37;;
56269;SDS011;42176;43.240;27.880;2024-02-26T03:05:15;9.97;;;4.50;;
56269;SDS011;42176;43.240;27.880;2024-02-26T03:07:15;12.60;;;6.10;;
56269;SDS011;42176;43.240;27.880;2024-02-26T03:09:16;11.50;;;4.90;;
56269;SDS011;42176;43.240;27.880;2024-02-26T03:11:16;10.10;;;4.97;;
56269;SDS011;42176;43.240;27.880;2024-02-26T03:13:17;10.23;;;5.83;;
56269;SDS011;42176;43.240;27.880;2024-02-26T03:15:18;9.00;;;4.90;;
56269;SDS011;42176;43.240;27.880;2024-02-26T03:17:18;12.80;;;5.03;;
56269;SDS011;42176;43.240;27.880;2024-02-26T03:19:19;10.00;;;5.40;;
56269;SDS011;42176;43.240;27.880;2024-02-26T03:21:20;8.60;;;5.20;;
56269;SDS011;42176;43.240;27.880;2024-02-26T03:23:21;7.17;;;4.23;;
56269;SDS011;42176;43.240;27.880;2024-02-26T03:25:22;12.10;;;5.37;;
56269;SDS011;42176;43.240;27.880;2024-02-26T03:27:22;10.03;;;4.37;;
56269;SDS011;42176;43.240;27.880;2024-02-26T03:29:24;10.18;;;4.95;;
56269;SDS011;42176;43.240;27.880;2024-02-26T03:31:24;8.30;;;4.60;;
56269;SDS011;42176;43.240;27.880;2024-02-26T03:33:25;8.50;;;4.90;;
56269;SDS011;42176;43.240;27.880;2024-02-26T03:35:25;13.50;;;4.97;;
56269;SDS011;42176;43.240;27.880;2024-02-26T03:37:26;16.03;;;4.90;;
56269;SDS011;42176;43.240;27.880;2024-02-26T03:39:26;10.77;;;4.80;;
56269;SDS011;42176;43.240;27.880;2024-02-26T03:41:27;10.43;;;5.37;;
56269;SDS011;42176;43.240;27.880;2024-02-26T03:43:28;8.63;;;4.53;;
56269;SDS011;42176;43.240;27.880;2024-02-26T03:45:28;13.43;;;5.53;;
56269;SDS011;42176;43.240;27.880;2024-02-26T03:47:29;7.73;;;4.53;;
56269;SDS011;42176;43.240;27.880;2024-02-26T03:49:29;13.67;;;5.13;;
56269;SDS011;42176;43.240;27.880;2024-02-26T03:51:30;9.83;;;4.83;;
56269;SDS011;42176;43.240;27.880;2024-02-26T03:53:32;11.48;;;4.93;;
56269;SDS011;42176;43.240;27.880;2024-02-26T03:55:32;15.77;;;5.63;;
56269;SDS011;42176;43.240;27.880;2024-02-26T03:57:33;11.43;;;5.50;;
56269;SDS011;42176;43.240;27.880;2024-02-26T03:59:33;12.23;;;4.87;;
56269;SDS011;42176;43.240;27.880;2024-02-26T04:01:34;10.93;;;4.47;;
56269;SDS011;42176;43.240;27.880;2024-02-26T04:03:34;8.77;;;4.77;;
56269;SDS011;42176;43.240;27.880;2024-02-26T04:05:35;10.60;;;6.03;;
56269;SDS011;42176;43.240;27.880;2024-02-26T04:07:36;11.13;;;5.97;;
56269;SDS011;42176;43.240;27.880;2024-02-26T04:09:36;14.57;;;5.27;;
56269;SDS011;42176;43.240;27.880;2024-02-26T04:11:37;13.55;;;5.35;;
56269;SDS011;42176;43.240;27.880;2024-02-26T04:13:37;13.77;;;6.03;;
56269;SDS011;42176;43.240;27.880;2024-02-26T04:15:38;14.95;;;6.43;;
56269;SDS011;42176;43.240;27.880;2024-02-26T04:17:39;8.40;;;4.73;;
56269;SDS011;42176;43.240;27.880;2024-02-26T04:19:40;9.13;;;5.28;;
56269;SDS011;42176;43.240;27.880;2024-02-26T04:21:41;9.57;;;4.57;;
56269;SDS011;42176;43.240;27.880;2024-02-26T04:23:41;11.05;;;4.15;;
56269;SDS011;42176;43.240;27.880;2024-02-26T04:25:42;18.20;;;4.43;;
56269;SDS011;42176;43.240;27.880;2024-02-26T04:27:42;6.77;;;4.47;;
56269;SDS011;42176;43.240;27.880;2024-02-26T04:29:43;11.30;;;5.30;;
56269;SDS011;42176;43.240;27.880;2024-02-26T04:31:43;11.93;;;4.60;;
56269;SDS011;42176;43.240;27.880;2024-02-26T04:33:46;13.20;;;5.38;;
56269;SDS011;42176;43.240;27.880;2024-02-26T04:35:46;12.90;;;5.13;;
56269;SDS011;42176;43.240;27.880;2024-02-26T04:37:47;12.13;;;5.47;;
56269;SDS011;42176;43.240;27.880;2024-02-26T04:39:48;16.00;;;5.30;;
56269;SDS011;42176;43.240;27.880;2024-02-26T04:41:48;10.33;;;4.87;;
56269;SDS011;42176;43.240;27.880;2024-02-26T04:43:49;13.23;;;5.10;;
56269;SDS011;42176;43.240;27.880;2024-02-26T04:45:49;12.95;;;3.83;;
56269;SDS011;42176;43.240;27.880;2024-02-26T04:47:50;15.27;;;4.97;;
56269;SDS011;42176;43.240;27.880;2024-02-26T04:49:50;7.50;;;3.43;;
56269;SDS011;42176;43.240;27.880;2024-02-26T04:51:52;10.55;;;4.50;;
56269;SDS011;42176;43.240;27.880;2024-02-26T04:53:52;3.43;;;2.53;;
56269;SDS011;42176;43.240;27.880;2024-02-26T04:55:53;11.88;;;4.70;;
56269;SDS011;42176;43.240;27.880;2024-02-26T04:57:54;11.33;;;5.33;;
56269;SDS011;42176;43.240;27.880;2024-02-26T04:59:54;13.03;;;5.70;;
56269;SDS011;42176;43.240;27.880;2024-02-26T05:01:55;10.73;;;5.23;;
56269;SDS011;42176;43.240;27.880;2024-02-26T05:03:56;4.17;;;3.00;;
56269;SDS011;42176;43.240;27.880;2024-02-26T05:05:56;11.33;;;3.77;;
56269;SDS011;42176;43.240;27.880;2024-02-26T05:07:58;8.60;;;3.97;;
56269;SDS011;42176;43.240;27.880;2024-02-26T05:09:58;9.37;;;3.60;;
56269;SDS011;42176;43.240;27.880;2024-02-26T05:11:59;10.70;;;4.00;;
56269;SDS011;42176;43.240;27.880;2024-02-26T05:14:00;14.63;;;5.67;;
56269;SDS011;42176;43.240;27.880;2024-02-26T05:16:01;21.87;;;5.17;;
56269;SDS011;42176;43.240;27.880;2024-02-26T05:18:02;9.20;;;3.90;;
56269;SDS011;42176;43.240;27.880;2024-02-26T05:20:03;7.55;;;4.28;;
56269;SDS011;42176;43.240;27.880;2024-02-26T05:22:04;15.52;;;5.40;;
56269;SDS011;42176;43.240;27.880;2024-02-26T05:24:05;12.20;;;4.20;;
56269;SDS011;42176;43.240;27.880;2024-02-26T05:26:06;5.50;;;3.33;;
56269;SDS011;42176;43.240;27.880;2024-02-26T05:28:06;10.15;;;4.22;;
56269;SDS011;42176;43.240;27.880;2024-02-26T05:30:07;9.63;;;4.23;;
56269;SDS011;42176;43.240;27.880;2024-02-26T05:32:08;12.70;;;4.67;;
56269;SDS011;42176;43.240;27.880;2024-02-26T05:34:08;18.37;;;5.90;;
56269;SDS011;42176;43.240;27.880;2024-02-26T05:36:09;13.37;;;4.80;;
56269;SDS011;42176;43.240;27.880;2024-02-26T05:38:10;10.63;;;3.80;;
56269;SDS011;42176;43.240;27.880;2024-02-26T05:40:10;7.40;;;3.90;;
56269;SDS011;42176;43.240;27.880;2024-02-26T05:42:11;13.05;;;4.47;;
56269;SDS011;42176;43.240;27.880;2024-02-26T05:44:12;10.87;;;4.63;;
56269;SDS011;42176;43.240;27.880;2024-02-26T05:46:16;15.73;;;5.50;;
56269;SDS011;42176;43.240;27.880;2024-02-26T05:48:17;17.70;;;5.70;;
56269;SDS011;42176;43.240;27.880;2024-02-26T05:52:19;18.55;;;5.15;;
56269;SDS011;42176;43.240;27.880;2024-02-26T05:54:20;10.03;;;5.10;;
56269;SDS011;42176;43.240;27.880;2024-02-26T05:56:21;7.90;;;3.97;;
56269;SDS011;42176;43.240;27.880;2024-02-26T05:58:24;10.45;;;4.18;;
56269;SDS011;42176;43.240;27.880;2024-02-26T06:00:25;12.43;;;4.53;;
56269;SDS011;42176;43.240;27.880;2024-02-26T06:02:25;9.23;;;3.97;;
56269;SDS011;42176;43.240;27.880;2024-02-26T06:04:26;10.88;;;3.67;;
56269;SDS011;42176;43.240;27.880;2024-02-26T06:06:27;6.67;;;3.43;;
56269;SDS011;42176;43.240;27.880;2024-02-26T06:08:27;9.50;;;4.47;;
56269;SDS011;42176;43.240;27.880;2024-02-26T06:10:28;14.67;;;4.17;;
56269;SDS011;42176;43.240;27.880;2024-02-26T06:12:28;7.20;;;4.20;;
56269;SDS011;42176;43.240;27.880;2024-02-26T06:14:30;9.63;;;3.97;;
56269;SDS011;42176;43.240;27.880;2024-02-26T06:16:31;15.13;;;4.97;;
56269;SDS011;42176;43.240;27.880;2024-02-26T06:18:32;13.63;;;4.43;;
56269;SDS011;42176;43.240;27.880;2024-02-26T06:20:32;11.47;;;4.17;;
56269;SDS011;42176;43.240;27.880;2024-02-26T06:22:33;9.50;;;4.70;;
56269;SDS011;42176;43.240;27.880;2024-02-26T06:24:33;15.07;;;4.10;;
56269;SDS011;42176;43.240;27.880;2024-02-26T06:26:34;11.00;;;3.63;;
56269;SDS011;42176;43.240;27.880;2024-02-26T06:28:34;9.27;;;3.83;;
56269;SDS011;42176;43.240;27.880;2024-02-26T06:30:35;8.63;;;4.25;;
56269;SDS011;42176;43.240;27.880;2024-02-26T06:32:39;17.47;;;4.57;;
56269;SDS011;42176;43.240;27.880;2024-02-26T06:34:40;9.88;;;5.07;;
56269;SDS011;42176;43.240;27.880;2024-02-26T06:36:41;6.57;;;3.80;;
56269;SDS011;42176;43.240;27.880;2024-02-26T06:38:42;10.50;;;4.10;;
56269;SDS011;42176;43.240;27.880;2024-02-26T06:40:43;11.40;;;4.40;;
56269;SDS011;42176;43.240;27.880;2024-02-26T06:42:44;10.35;;;4.10;;
56269;SDS011;42176;43.240;27.880;2024-02-26T06:44:45;13.67;;;4.80;;
56269;SDS011;42176;43.240;27.880;2024-02-26T06:46:45;11.97;;;4.20;;
56269;SDS011;42176;43.240;27.880;2024-02-26T06:48:47;11.87;;;4.00;;
56269;SDS011;42176;43.240;27.880;2024-02-26T06:50:48;10.02;;;4.40;;
56269;SDS011;42176;43.240;27.880;2024-02-26T06:52:49;11.43;;;4.37;;
56269;SDS011;42176;43.240;27.880;2024-02-26T06:54:49;7.83;;;4.03;;
56269;SDS011;42176;43.240;27.880;2024-02-26T06:56:51;10.70;;;3.75;;
56269;SDS011;42176;43.240;27.880;2024-02-26T06:58:51;22.23;;;7.13;;
56269;SDS011;42176;43.240;27.880;2024-02-26T07:00:52;9.57;;;3.67;;
56269;SDS011;42176;43.240;27.880;2024-02-26T07:02:52;17.20;;;4.30;;
56269;SDS011;42176;43.240;27.880;2024-02-26T07:04:53;12.57;;;4.35;;
56269;SDS011;42176;43.240;27.880;2024-02-26T07:06:56;9.25;;;3.67;;
56269;SDS011;42176;43.240;27.880;2024-02-26T07:08:56;13.13;;;4.00;;
56269;SDS011;42176;43.240;27.880;2024-02-26T07:10:57;10.60;;;3.47;;
56269;SDS011;42176;43.240;27.880;2024-02-26T07:12:57;11.27;;;4.50;;
56269;SDS011;42176;43.240;27.880;2024-02-26T07:14:58;9.45;;;4.13;;
56269;SDS011;42176;43.240;27.880;2024-02-26T07:16:59;3.23;;;2.67;;
56269;SDS011;42176;43.240;27.880;2024-02-26T07:19:00;13.23;;;4.23;;
56269;SDS011;42176;43.240;27.880;2024-02-26T07:21:03;12.63;;;5.13;;
56269;SDS011;42176;43.240;27.880;2024-02-26T07:23:04;8.98;;;4.00;;
56269;SDS011;42176;43.240;27.880;2024-02-26T07:25:05;6.97;;;3.47;;
56269;SDS011;42176;43.240;27.880;2024-02-26T07:27:08;8.73;;;3.88;;
56269;SDS011;42176;43.240;27.880;2024-02-26T07:29:08;9.97;;;4.33;;
56269;SDS011;42176;43.240;27.880;2024-02-26T07:31:09;7.57;;;3.17;;
56269;SDS011;42176;43.240;27.880;2024-02-26T07:33:09;12.67;;;4.23;;
56269;SDS011;42176;43.240;27.880;2024-02-26T07:35:10;8.63;;;3.20;;
56269;SDS011;42176;43.240;27.880;2024-02-26T07:37:11;8.20;;;4.13;;
56269;SDS011;42176;43.240;27.880;2024-02-26T07:39:11;7.97;;;3.05;;
56269;SDS011;42176;43.240;27.880;2024-02-26T07:41:12;7.83;;;3.77;;
56269;SDS011;42176;43.240;27.880;2024-02-26T07:43:12;6.50;;;3.60;;
56269;SDS011;42176;43.240;27.880;2024-02-26T07:45:13;8.33;;;4.13;;
56269;SDS011;42176;43.240;27.880;2024-02-26T07:47:15;10.70;;;4.03;;
56269;SDS011;42176;43.240;27.880;2024-02-26T07:49:16;13.07;;;4.70;;
56269;SDS011;42176;43.240;27.880;2024-02-26T07:51:16;9.63;;;3.90;;
56269;SDS011;42176;43.240;27.880;2024-02-26T07:53:17;11.55;;;4.22;;
56269;SDS011;42176;43.240;27.880;2024-02-26T07:55:19;12.27;;;3.85;;
56269;SDS011;42176;43.240;27.880;2024-02-26T07:57:19;12.07;;;3.50;;
56269;SDS011;42176;43.240;27.880;2024-02-26T07:59:21;12.60;;;4.25;;
56269;SDS011;42176;43.240;27.880;2024-02-26T08:01:22;8.23;;;3.97;;
56269;SDS011;42176;43.240;27.880;2024-02-26T08:03:23;9.93;;;4.78;;
56269;SDS011;42176;43.240;27.880;2024-02-26T08:05:23;6.27;;;3.43;;
56269;SDS011;42176;43.240;27.880;2024-02-26T08:07:25;10.52;;;4.13;;
56269;SDS011;42176;43.240;27.880;2024-02-26T08:09:25;7.83;;;3.83;;
56269;SDS011;42176;43.240;27.880;2024-02-26T08:11:26;9.47;;;3.37;;
56269;SDS011;42176;43.240;27.880;2024-02-26T08:13:28;11.05;;;3.40;;
56269;SDS011;42176;43.240;27.880;2024-02-26T08:15:28;10.13;;;4.00;;
56269;SDS011;42176;43.240;27.880;2024-02-26T08:17:29;6.70;;;3.80;;
56269;SDS011;42176;43.240;27.880;2024-02-26T08:19:29;7.33;;;3.73;;
56269;SDS011;42176;43.240;27.880;2024-02-26T08:21:30;6.90;;;3.53;;
56269;SDS011;42176;43.240;27.880;2024-02-26T08:23:31;6.37;;;3.57;;
56269;SDS011;42176;43.240;27.880;2024-02-26T08:25:31;8.70;;;3.35;;
56269;SDS011;42176;43.240;27.880;2024-02-26T08:27:32;13.20;;;4.10;;
56269;SDS011;42176;43.240;27.880;2024-02-26T08:29:33;6.43;;;3.50;;
56269;SDS011;42176;43.240;27.880;2024-02-26T08:31:33;8.63;;;4.70;;
56269;SDS011;42176;43.240;27.880;2024-02-26T08:33:37;11.70;;;3.95;;
56269;SDS011;42176;43.240;27.880;2024-02-26T08:35:38;7.93;;;4.30;;
56269;SDS011;42176;43.240;27.880;2024-02-26T08:37:39;10.60;;;4.13;;
56269;SDS011;42176;43.240;27.880;2024-02-26T08:39:39;15.97;;;4.40;;
56269;SDS011;42176;43.240;27.880;2024-02-26T08:41:40;7.37;;;3.30;;
56269;SDS011;42176;43.240;27.880;2024-02-26T08:43:40;5.80;;;3.77;;
56269;SDS011;42176;43.240;27.880;2024-02-26T08:45:41;8.87;;;3.57;;
56269;SDS011;42176;43.240;27.880;2024-02-26T08:47:41;9.83;;;3.27;;
56269;SDS011;42176;43.240;27.880;2024-02-26T08:49:42;9.90;;;3.30;;
56269;SDS011;42176;43.240;27.880;2024-02-26T08:51:44;10.05;;;4.25;;
56269;SDS011;42176;43.240;27.880;2024-02-26T08:53:45;11.65;;;4.45;;
56269;SDS011;42176;43.240;27.880;2024-02-26T08:55:46;11.95;;;4.53;;
56269;SDS011;42176;43.240;27.880;2024-02-26T08:57:47;6.97;;;3.40;;
56269;SDS011;42176;43.240;27.880;2024-02-26T08:59:48;10.98;;;3.60;;
56269;SDS011;42176;43.240;27.880;2024-02-26T09:01:48;15.10;;;4.00;;
56269;SDS011;42176;43.240;27.880;2024-02-26T09:03:49;12.13;;;3.77;;
56269;SDS011;42176;43.240;27.880;2024-02-26T09:05:50;7.17;;;2.97;;
56269;SDS011;42176;43.240;27.880;2024-02-26T09:07:50;9.73;;;3.43;;
56269;SDS011;42176;43.240;27.880;2024-02-26T09:09:52;8.82;;;3.60;;
56269;SDS011;42176;43.240;27.880;2024-02-26T09:11:52;17.00;;;4.73;;
56269;SDS011;42176;43.240;27.880;2024-02-26T09:13:55;8.60;;;3.92;;
56269;SDS011;42176;43.240;27.880;2024-02-26T09:15:55;9.00;;;2.77;;
56269;SDS011;42176;43.240;27.880;2024-02-26T09:17:56;10.50;;;3.50;;
56269;SDS011;42176;43.240;27.880;2024-02-26T09:19:56;13.00;;;3.87;;
56269;SDS011;42176;43.240;27.880;2024-02-26T09:21:57;12.83;;;3.60;;
56269;SDS011;42176;43.240;27.880;2024-02-26T09:23:58;9.02;;;4.00;;
56269;SDS011;42176;43.240;27.880;2024-02-26T09:25:59;7.83;;;3.57;;
56269;SDS011;42176;43.240;27.880;2024-02-26T09:30:01;9.30;;;3.47;;
56269;SDS011;42176;43.240;27.880;2024-02-26T09:32:03;8.73;;;3.58;;
56269;SDS011;42176;43.240;27.880;2024-02-26T09:34:03;9.00;;;3.65;;
56269;SDS011;42176;43.240;27.880;2024-02-26T09:36:04;7.75;;;3.17;;
56269;SDS011;42176;43.240;27.880;2024-02-26T09:38:06;11.20;;;3.65;;
56269;SDS011;42176;43.240;27.880;2024-02-26T09:40:07;10.30;;;4.17;;
56269;SDS011;42176;43.240;27.880;2024-02-26T09:42:08;6.83;;;3.37;;
56269;SDS011;42176;43.240;27.880;2024-02-26T09:44:11;10.90;;;3.72;;
56269;SDS011;42176;43.240;27.880;2024-02-26T09:46:18;11.50;;;3.80;;
56269;SDS011;42176;43.240;27.880;2024-02-26T09:50:22;9.88;;;3.55;;
56269;SDS011;42176;43.240;27.880;2024-02-26T09:52:23;9.33;;;3.93;;
56269;SDS011;42176;43.240;27.880;2024-02-26T09:54:25;8.43;;;3.80;;
56269;SDS011;42176;43.240;27.880;2024-02-26T09:56:28;15.88;;;3.30;;
56269;SDS011;42176;43.240;27.880;2024-02-26T09:58:30;10.75;;;3.92;;
56269;SDS011;42176;43.240;27.880;2024-02-26T10:00:31;11.00;;;3.85;;
56269;SDS011;42176;43.240;27.880;2024-02-26T10:02:35;12.20;;;3.42;;
56269;SDS011;42176;43.240;27.880;2024-02-26T10:04:39;13.48;;;4.32;;
56269;SDS011;42176;43.240;27.880;2024-02-26T10:06:40;15.48;;;3.55;;
56269;SDS011;42176;43.240;27.880;2024-02-26T10:08:44;14.80;;;4.68;;
56269;SDS011;42176;43.240;27.880;2024-02-26T10:10:45;10.63;;;4.28;;
56269;SDS011;42176;43.240;27.880;2024-02-26T10:12:46;10.97;;;3.93;;
56269;SDS011;42176;43.240;27.880;2024-02-26T10:14:46;19.40;;;5.33;;
56269;SDS011;42176;43.240;27.880;2024-02-26T10:16:47;10.67;;;4.10;;
56269;SDS011;42176;43.240;27.880;2024-02-26T10:18:48;11.20;;;4.63;;
56269;SDS011;42176;43.240;27.880;2024-02-26T10:21:00;9.57;;;3.90;;
56269;SDS011;42176;43.240;27.880;2024-02-26T10:23:03;9.52;;;4.18;;
56269;SDS011;42176;43.240;27.880;2024-02-26T10:25:08;13.85;;;4.85;;
56269;SDS011;42176;43.240;27.880;2024-02-26T10:27:08;9.10;;;3.87;;
56269;SDS011;42176;43.240;27.880;2024-02-26T10:29:09;8.73;;;3.83;;
56269;SDS011;42176;43.240;27.880;2024-02-26T10:31:11;12.17;;;4.03;;
56269;SDS011;42176;43.240;27.880;2024-02-26T10:33:13;13.77;;;3.78;;
56269;SDS011;42176;43.240;27.880;2024-02-26T10:35:14;16.13;;;4.72;;
56269;SDS011;42176;43.240;27.880;2024-02-26T10:37:16;13.60;;;4.45;;
56269;SDS011;42176;43.240;27.880;2024-02-26T10:39:17;13.50;;;4.50;;
56269;SDS011;42176;43.240;27.880;2024-02-26T10:41:36;18.83;;;5.75;;
56269;SDS011;42176;43.240;27.880;2024-02-26T10:43:37;11.30;;;3.50;;
56269;SDS011;42176;43.240;27.880;2024-02-26T10:45:37;21.57;;;4.43;;
56269;SDS011;42176;43.240;27.880;2024-02-26T10:47:41;8.30;;;4.05;;
56269;SDS011;42176;43.240;27.880;2024-02-26T10:49:48;9.73;;;3.10;;
56269;SDS011;42176;43.240;27.880;2024-02-26T10:51:56;10.43;;;3.85;;
56269;SDS011;42176;43.240;27.880;2024-02-26T10:53:58;11.05;;;3.85;;
56269;SDS011;42176;43.240;27.880;2024-02-26T10:56:02;10.07;;;3.20;;
56269;SDS011;42176;43.240;27.880;2024-02-26T10:58:07;10.55;;;3.38;;
56269;SDS011;42176;43.240;27.880;2024-02-26T11:00:18;10.73;;;3.28;;
56269;SDS011;42176;43.240;27.880;2024-02-26T11:02:18;5.90;;;3.15;;
56269;SDS011;42176;43.240;27.880;2024-02-26T11:04:20;9.10;;;3.30;;
56269;SDS011;42176;43.240;27.880;2024-02-26T11:06:22;14.07;;;3.55;;
56269;SDS011;42176;43.240;27.880;2024-02-26T11:08:24;10.30;;;3.33;;
56269;SDS011;42176;43.240;27.880;2024-02-26T11:10:27;8.57;;;3.22;;
56269;SDS011;42176;43.240;27.880;2024-02-26T11:12:31;8.57;;;3.63;;
56269;SDS011;42176;43.240;27.880;2024-02-26T11:14:32;12.00;;;3.65;;
56269;SDS011;42176;43.240;27.880;2024-02-26T11:16:34;10.32;;;2.72;;
56269;SDS011;42176;43.240;27.880;2024-02-26T11:18:36;7.57;;;3.67;;
56269;SDS011;42176;43.240;27.880;2024-02-26T11:20:38;8.38;;;2.85;;
56269;SDS011;42176;43.240;27.880;2024-02-26T11:22:41;13.80;;;4.10;;
56269;SDS011;42176;43.240;27.880;2024-02-26T11:24:41;9.93;;;4.27;;
56269;SDS011;42176;43.240;27.880;2024-02-26T11:26:47;12.25;;;3.60;;
56269;SDS011;42176;43.240;27.880;2024-02-26T11:28:50;8.70;;;2.53;;
56269;SDS011;42176;43.240;27.880;2024-02-26T11:32:53;10.13;;;3.20;;
56269;SDS011;42176;43.240;27.880;2024-02-26T11:34:54;9.23;;;3.53;;
56269;SDS011;42176;43.240;27.880;2024-02-26T11:36:55;11.17;;;3.77;;
56269;SDS011;42176;43.240;27.880;2024-02-26T11:38:56;7.35;;;3.47;;
56269;SDS011;42176;43.240;27.880;2024-02-26T11:40:57;9.73;;;3.13;;
56269;SDS011;42176;43.240;27.880;2024-02-26T11:44:59;12.55;;;3.28;;
56269;SDS011;42176;43.240;27.880;2024-02-26T11:47:09;13.20;;;3.45;;
56269;SDS011;42176;43.240;27.880;2024-02-26T11:51:32;15.02;;;3.80;;
56269;SDS011;42176;43.240;27.880;2024-02-26T11:53:34;5.95;;;2.92;;
56269;SDS011;42176;43.240;27.880;2024-02-26T11:55:45;7.03;;;3.55;;
56269;SDS011;42176;43.240;27.880;2024-02-26T11:57:46;8.10;;;4.00;;
56269;SDS011;42176;43.240;27.880;2024-02-26T11:59:46;13.90;;;3.67;;
56269;SDS011;42176;43.240;27.880;2024-02-26T12:01:48;8.25;;;3.42;;
56269;SDS011;42176;43.240;27.880;2024-02-26T12:03:48;6.80;;;2.83;;
56269;SDS011;42176;43.240;27.880;2024-02-26T12:05:49;9.83;;;3.57;;